NCAR-RAP Real-Time Weather Data

Output produced by METARs form (10 April 2020  07:08 UTC)
found at http://weather.rap.ucar.edu/surface/
 
KMKL 100653Z AUTO 36016G23KT 10SM CLR 12/M01 A3001 RMK AO2 PK WND 35026/0640 SLP158 T01171011
KMKL 100553Z AUTO 35010KT 10SM CLR 12/M01 A2998 RMK AO2 SLP150 T01221006 10161 20117 401940117 51018
KMKL 100453Z AUTO 36009KT 10SM CLR 13/01 A2997 RMK AO2 SLP147 T01330011
KMKL 100353Z AUTO 33009KT 10SM CLR 14/04 A2994 RMK AO2 SLP137 T01390039
KMKL 100253Z AUTO 30007KT 10SM CLR 15/05 A2993 RMK AO2 SLP132 T01500050 53015
KMKL 100153Z AUTO 23005KT 10SM CLR 13/06 A2990 RMK AO2 SLP124 T01330061
KMKL 100053Z AUTO 23005KT 10SM SCT120 16/05 A2988 RMK AO2 SLP115 T01560050
KMKL 092353Z AUTO 26004KT 10SM CLR 16/04 A2988 RMK AO2 SLP118 T01610044 10194 20161 58013
KMKL 092253Z 30007KT 10SM CLR 17/02 A2991 RMK AO2 SLP127 T01720017
KMKL 092153Z 32013G20KT 10SM CLR 18/01 A2992 RMK AO2 SLP128 T01830011
KMKL 092053Z 32011KT 10SM CLR 19/02 A2992 RMK AO2 SLP129 T01890017 56016
KMKL 091953Z 32008KT 10SM CLR 19/03 A2993 RMK AO2 SLP132 T01890033
KMKL 091853Z 33011KT 10SM CLR 19/03 A2995 RMK AO2 SLP138 T01890028
KMKL 091753Z 36014KT 10SM CLR 18/03 A2997 RMK AO2 SLP145 T01830028 10183 20122 58009
KMKL 091653Z 02007KT 10SM CLR 17/03 A2999 RMK AO2 SLP151 T01720028
KMKL 091553Z 02015KT 10SM CLR 16/02 A3000 RMK AO2 SLP157 T01610022
KMKL 091453Z 03012KT 10SM CLR 16/04 A2999 RMK AO2 SLP153 T01610039 50012
KMKL 091353Z 01016G24KT 10SM CLR 14/03 A3000 RMK AO2 SLP154 T01390033
KMKL 091253Z 35013KT 10SM CLR 13/07 A2999 RMK AO2 SLP154 T01280067
KMKL 091153Z 36007KT 10SM CLR 12/08 A2996 RMK AO2 SLP141 60019 70034 T01220078 10178 20122 51052
KMKL 091053Z AUTO 36014KT 10SM FEW100 13/08 A2991 RMK AO2 SLP126 T01330083
KMKL 090953Z AUTO 36013KT 10SM FEW100 14/11 A2985 RMK AO2 SLP103 T01440106
KMKL 090853Z AUTO 36012KT 10SM CLR 16/14 A2980 RMK AO2 SLP088 60019 T01610139 53022